createdAt,value
2023-02-26T00:00:24.989Z,44.88
2023-02-26T00:05:27.178Z,42.15
2023-02-26T00:10:29.358Z,37.90
2023-02-26T00:15:31.807Z,28.50
2023-02-26T00:20:34.796Z,39.40
2023-02-26T00:25:36.944Z,34.53
2023-02-26T00:30:39.882Z,32.15
2023-02-26T00:35:42.316Z,40.55
2023-02-26T00:40:45.842Z,44.40
2023-02-26T00:46:03.550Z,29.10
2023-02-26T00:51:37.607Z,27.63
2023-02-26T00:56:39.736Z,30.50
2023-02-26T01:01:42.478Z,27.30
2023-02-26T01:06:53.752Z,30.23
2023-02-26T01:11:58.587Z,31.80
2023-02-26T01:17:27.526Z,30.40
2023-02-26T01:22:36.510Z,37.30
2023-02-26T01:27:38.871Z,32.73
2023-02-26T01:33:11.584Z,32.33
2023-02-26T01:38:37.228Z,25.20
2023-02-26T01:43:45.577Z,28.30
2023-02-26T01:49:13.537Z,32.88
2023-02-26T01:54:20.102Z,33.25
2023-02-26T01:59:25.094Z,31.08
2023-02-26T02:04:27.660Z,41.28
2023-02-26T02:09:30.077Z,35.72
2023-02-26T02:14:57.437Z,25.13
2023-02-26T02:20:11.331Z,31.55
2023-02-26T02:25:50.047Z,33.15
2023-02-26T02:31:22.175Z,32.40
2023-02-26T02:36:43.652Z,23.85
2023-02-26T02:42:17.388Z,33.22
2023-02-26T02:47:22.249Z,27.67
2023-02-26T02:52:34.024Z,39.47
2023-02-26T02:58:00.927Z,24.50
2023-02-26T03:03:37.260Z,33.95
2023-02-26T03:08:42.292Z,36.80
2023-02-26T03:13:46.401Z,32.67
2023-02-26T03:19:09.421Z,34.97
2023-02-26T03:24:34.468Z,33.13
2023-02-26T03:29:45.412Z,56.70
2023-02-26T03:35:10.881Z,36.53
2023-02-26T03:40:20.978Z,38.70
2023-02-26T03:45:29.476Z,36.50
2023-02-26T03:50:49.854Z,33.42
2023-02-26T04:01:09.813Z,32.65
2023-02-26T04:11:20.485Z,32.53
2023-02-26T04:16:22.941Z,29.45
2023-02-26T04:21:25.397Z,41.55
2023-02-26T04:26:27.571Z,30.67
2023-02-26T04:31:29.981Z,36.10
2023-02-26T04:36:32.194Z,31.45
2023-02-26T04:41:34.304Z,30.58
2023-02-26T04:46:36.418Z,39.30
2023-02-26T04:51:38.559Z,29.08
2023-02-26T04:56:40.770Z,31.73
2023-02-26T05:01:42.993Z,29.83
2023-02-26T05:06:45.087Z,33.28
2023-02-26T05:11:48.317Z,45.40
2023-02-26T05:16:50.464Z,42.20
2023-02-26T05:21:52.603Z,34.92
2023-02-26T05:26:54.801Z,28.38
2023-02-26T05:31:57.149Z,37.92
2023-02-26T05:36:59.446Z,30.70
2023-02-26T05:42:01.755Z,35.17
2023-02-26T05:47:04.096Z,31.23
2023-02-26T05:52:06.277Z,30.95
2023-02-26T05:57:08.682Z,38.15
2023-02-26T06:02:10.934Z,31.02
2023-02-26T06:07:13.510Z,32.70
2023-02-26T06:12:15.653Z,42.92
2023-02-26T06:17:17.892Z,40.72
2023-02-26T06:22:20.460Z,32.38
2023-02-26T06:27:23.524Z,29.35
2023-02-26T06:32:25.771Z,35.78
2023-02-26T06:37:28.147Z,39.10
2023-02-26T06:42:30.269Z,27.75
2023-02-26T06:47:32.378Z,33.25
2023-02-26T06:52:35.478Z,34.08
2023-02-26T06:57:37.956Z,33.35
2023-02-26T07:02:40.219Z,36.05
2023-02-26T07:07:42.539Z,33.83
2023-02-26T07:12:44.652Z,30.38
2023-02-26T07:17:46.790Z,33.20
2023-02-26T07:22:49.734Z,31.73
2023-02-26T07:27:52.677Z,27.35
2023-02-26T07:32:55.203Z,27.10
2023-02-26T07:37:57.366Z,27.40
2023-02-26T07:42:59.625Z,32.70
2023-02-26T07:48:01.991Z,30.58
2023-02-26T07:53:04.200Z,30.38
2023-02-26T07:58:06.485Z,30.55
2023-02-26T08:03:08.663Z,26.17
2023-02-26T08:08:10.812Z,28.85
2023-02-26T08:13:13.005Z,18.90
2023-02-26T08:18:15.176Z,19.02
2023-02-26T08:23:17.380Z,22.00
2023-02-26T08:28:19.586Z,12.82
2023-02-26T08:33:23.462Z,17.25
2023-02-26T08:38:28.359Z,14.98
2023-02-26T08:43:30.612Z,17.90
2023-02-26T08:48:32.938Z,25.45
2023-02-26T08:53:35.215Z,25.88
2023-02-26T08:58:37.405Z,22.17
2023-02-26T09:03:40.000Z,11.85
2023-02-26T09:08:42.193Z,18.25
2023-02-26T09:13:44.325Z,21.98
2023-02-26T09:18:47.252Z,19.65
2023-02-26T09:23:49.749Z,19.08
2023-02-26T09:28:52.145Z,18.98
2023-02-26T09:33:54.274Z,23.67
2023-02-26T09:38:56.578Z,14.85
2023-02-26T09:44:16.638Z,20.42
2023-02-26T09:54:37.074Z,25.30
2023-02-26T09:59:39.530Z,11.43
2023-02-26T10:04:50.109Z,19.73
2023-02-26T10:10:03.405Z,20.23
2023-02-26T10:15:14.134Z,12.88
2023-02-26T10:20:39.985Z,17.25
2023-02-26T10:25:50.176Z,10.00
2023-02-26T10:30:57.231Z,17.13
2023-02-26T10:36:10.995Z,26.17
2023-02-26T10:41:21.138Z,23.70
2023-02-26T10:46:44.805Z,14.88
2023-02-26T10:51:47.436Z,23.23
2023-02-26T10:56:49.556Z,18.27
2023-02-26T11:01:52.912Z,18.85
2023-02-26T11:07:05.485Z,14.75
2023-02-26T11:12:13.611Z,15.60
2023-02-26T11:17:19.811Z,18.45
2023-02-26T11:22:22.611Z,12.90
2023-02-26T11:27:32.405Z,16.55
2023-02-26T11:32:37.571Z,10.52
2023-02-26T11:37:41.737Z,16.25
2023-02-26T11:42:54.432Z,19.52
2023-02-26T11:48:03.293Z,14.25
2023-02-26T11:53:08.680Z,21.13
2023-02-26T11:58:39.453Z,19.00
2023-02-26T12:03:48.620Z,13.35
2023-02-26T12:08:53.047Z,14.30
2023-02-26T12:14:35.863Z,9.25
2023-02-26T12:19:41.122Z,15.15
2023-02-26T12:25:04.792Z,19.58
2023-02-26T12:30:16.030Z,9.65
2023-02-26T12:35:41.608Z,14.57
2023-02-26T12:41:04.055Z,10.27
2023-02-26T12:46:41.186Z,14.60
2023-02-26T12:52:27.843Z,6.38
2023-02-26T12:57:32.806Z,18.73
2023-02-26T13:02:57.674Z,17.85
2023-02-26T13:08:18.338Z,12.63
2023-02-26T13:13:41.271Z,10.93
2023-02-26T13:19:20.978Z,13.32
2023-02-26T13:24:37.390Z,15.43
2023-02-26T13:29:56.430Z,11.43
2023-02-26T13:35:22.942Z,14.57
2023-02-26T13:40:40.374Z,15.40
2023-02-26T13:46:06.791Z,7.50
2023-02-26T13:51:28.388Z,12.82
2023-02-26T13:56:33.553Z,10.68
2023-02-26T14:01:54.816Z,11.35
2023-02-26T14:07:15.763Z,15.30
2023-02-26T14:12:17.916Z,12.45
2023-02-26T14:17:28.951Z,11.40
2023-02-26T14:22:31.316Z,8.50
2023-02-26T14:27:33.551Z,8.15
2023-02-26T14:32:53.767Z,9.35
2023-02-26T14:38:09.155Z,14.00
2023-02-26T14:43:21.633Z,14.40
2023-02-26T14:48:29.772Z,18.08
2023-02-26T14:53:47.509Z,6.95
2023-02-26T14:59:10.357Z,9.18
2023-02-26T15:04:50.616Z,12.25
2023-02-26T15:15:33.685Z,12.35
2023-02-26T15:20:38.535Z,7.77
2023-02-26T15:25:44.445Z,10.73
2023-02-26T15:30:49.288Z,14.27
2023-02-26T15:35:53.382Z,14.13
2023-02-26T15:41:00.132Z,15.05
2023-02-26T15:46:03.600Z,11.52
2023-02-26T15:51:09.457Z,18.52
2023-02-26T15:56:22.249Z,10.98
2023-02-26T16:01:27.156Z,11.25
2023-02-26T16:06:38.756Z,14.68
2023-02-26T16:11:43.572Z,12.68
2023-02-26T16:16:50.280Z,16.20
2023-02-26T16:21:54.803Z,14.23
2023-02-26T16:27:07.318Z,18.45
2023-02-26T16:32:12.812Z,15.13
2023-02-26T16:37:30.283Z,18.83
2023-02-26T16:42:45.405Z,16.15
2023-02-26T16:47:51.759Z,14.05
2023-02-26T16:53:09.883Z,18.45
2023-02-26T16:58:15.972Z,21.95
2023-02-26T17:03:21.043Z,23.73
2023-02-26T17:08:28.019Z,22.65
2023-02-26T17:13:34.411Z,15.45
2023-02-26T17:18:36.502Z,22.05
2023-02-26T17:23:39.410Z,24.92
2023-02-26T17:28:43.182Z,13.07
2023-02-26T17:33:45.998Z,15.48
2023-02-26T17:38:48.865Z,15.27
2023-02-26T17:43:51.157Z,14.98
2023-02-26T17:48:53.370Z,17.25
2023-02-26T17:53:55.666Z,14.38
2023-02-26T17:59:00.035Z,13.35
2023-02-26T18:04:03.882Z,17.60
2023-02-26T18:09:07.046Z,21.13
2023-02-26T18:14:11.970Z,15.43
2023-02-26T18:19:15.807Z,16.70
2023-02-26T18:24:17.930Z,19.83
2023-02-26T18:29:21.234Z,18.38
2023-02-26T18:34:23.311Z,19.33
2023-02-26T18:39:27.969Z,15.48
2023-02-26T18:44:30.110Z,18.83
2023-02-26T18:49:32.209Z,17.58
2023-02-26T18:54:34.302Z,15.52
2023-02-26T18:59:37.411Z,18.45
2023-02-26T19:04:40.430Z,15.43
2023-02-26T19:09:42.745Z,15.73
2023-02-26T19:14:45.001Z,16.27
2023-02-26T19:19:47.567Z,17.35
2023-02-26T19:24:49.916Z,13.25
2023-02-26T19:29:52.119Z,15.32
2023-02-26T19:34:54.282Z,21.08
2023-02-26T19:39:56.403Z,16.42
2023-02-26T19:44:59.150Z,16.67
2023-02-26T19:50:01.293Z,22.35
2023-02-26T19:55:05.764Z,23.83
2023-02-26T20:00:08.901Z,22.25
2023-02-26T20:05:16.288Z,21.23
2023-02-26T20:10:19.309Z,15.68
2023-02-26T20:15:21.540Z,20.58
2023-02-26T20:20:24.149Z,16.17
2023-02-26T20:25:26.420Z,19.88
2023-02-26T20:30:28.582Z,16.58
2023-02-26T20:35:30.710Z,18.35
2023-02-26T20:40:33.037Z,17.92
2023-02-26T20:45:39.365Z,19.98
2023-02-26T20:50:42.026Z,14.02
2023-02-26T20:55:44.385Z,20.00
2023-02-26T21:00:47.022Z,16.00
2023-02-26T21:05:49.937Z,23.73
2023-02-26T21:10:53.221Z,21.02
2023-02-26T21:15:55.647Z,19.38
2023-02-26T21:20:58.308Z,20.30
2023-02-26T21:26:00.588Z,20.70
2023-02-26T21:31:03.308Z,18.23
2023-02-26T21:36:06.687Z,27.30
2023-02-26T21:41:08.836Z,23.55
2023-02-26T21:46:10.998Z,13.60
2023-02-26T21:51:13.370Z,20.35
2023-02-26T21:56:16.234Z,17.95
2023-02-26T22:01:18.487Z,18.17
2023-02-26T22:06:20.604Z,17.90
2023-02-26T22:11:22.823Z,15.90
2023-02-26T22:16:25.172Z,25.52
2023-02-26T22:21:27.682Z,26.35
2023-02-26T22:26:30.759Z,21.40
2023-02-26T22:31:33.476Z,21.73
2023-02-26T22:36:36.643Z,21.92
2023-02-26T22:41:38.878Z,23.27
2023-02-26T22:46:41.168Z,21.00
2023-02-26T22:51:43.354Z,19.10
2023-02-26T22:56:45.576Z,26.13
2023-02-26T23:01:47.763Z,25.13
2023-02-26T23:06:49.993Z,20.17
2023-02-26T23:11:52.159Z,17.73
2023-02-26T23:16:54.565Z,16.17
2023-02-26T23:21:56.779Z,23.17
2023-02-26T23:26:59.111Z,25.33
2023-02-26T23:32:01.460Z,26.30
2023-02-26T23:37:03.671Z,21.02
2023-02-26T23:42:06.064Z,36.03
2023-02-26T23:47:08.303Z,25.83
2023-02-26T23:52:10.421Z,29.88
2023-02-26T23:57:12.562Z,43.28
